Unlu-5 — TCON5 — position and weather

sailwx.info

Track history (hours):
 
Tides and Currents Weather Stations Pressure Air Temp Water Temp Dewpoint Dewpoint Depression Visibility Wind Speed Wind Dir Waves Ship Positions

Unlu-5

Last reported at 2017-Aug-18 09:52 UTC. Time now 2017-Aug-21 04:24 UTC.
Position N 41°17' E 029°02'.

Length 99 m; draft 6 m.

Type: Ship. MMSI: 271000854.

Date/timePositionNaut miles runAvg speedWind from/ knotsBaromVisibWave heightAir tempDewpointWater temp
2017-Aug-18 09:52N 41°17' E 029°02'0 0.2
2017-Aug-18 09:30N 41°17' E 029°02'  
2017-Aug-15 23:16N 44°59' E 036°29'5 7.8
2017-Aug-15 22:38N 45°04' E 036°30'1 7.6
2017-Aug-15 22:30N 45°05' E 036°30'4 6.9
2017-Aug-15 21:59N 45°08' E 036°32'2 3.2
2017-Aug-15 21:24N 45°09' E 036°34'0 0.0
2017-Aug-15 10:58N 45°09' E 036°34'0 0.0
2017-Aug-14 17:17N 45°09' E 036°34'1 4.3
2017-Aug-14 16:59N 45°10' E 036°33'0 0.0
2017-Aug-14 15:14N 45°10' E 036°33'0 0.0
2017-Aug-14 13:17N 45°10' E 036°33'0 0.1
2017-Aug-14 12:56N 45°10' E 036°33'0 0.0
2017-Aug-14 12:26N 45°10' E 036°33'0 0.0
2017-Aug-14 11:59N 45°10' E 036°33'0 0.0
2017-Aug-14 11:26N 45°10' E 036°33'0 0.0
2017-Aug-14 10:59N 45°10' E 036°33'0 0.0
2017-Aug-14 10:29N 45°10' E 036°33'0 0.0
2017-Aug-14 09:41N 45°10' E 036°33'0 0.1
2017-Aug-14 09:17N 45°10' E 036°33'0 0.1
2017-Aug-14 08:59N 45°10' E 036°33'0 0.0
2017-Aug-14 08:11N 45°10' E 036°33'0 0.2
2017-Aug-14 07:59N 45°10' E 036°32'0 0.1
2017-Aug-14 07:29N 45°10' E 036°32'0 0.0
2017-Aug-14 06:59N 45°10' E 036°32'0 0.0
2017-Aug-14 06:05N 45°10' E 036°33'0 0.2
2017-Aug-14 05:59N 45°10' E 036°32'0 0.0
2017-Aug-14 00:56N 45°10' E 036°32'0 0.0
2017-Aug-13 22:59N 45°10' E 036°32'0 0.0
2017-Aug-13 22:29N 45°10' E 036°32'0 0.0
2017-Aug-13 21:59N 45°10' E 036°32'0 0.0
2017-Aug-13 21:29N 45°10' E 036°32'0 0.0
2017-Aug-13 20:59N 45°10' E 036°32'0 0.1
2017-Aug-13 20:29N 45°10' E 036°33'0 0.0
2017-Aug-13 19:53N 45°10' E 036°33'0 0.0
2017-Aug-13 19:17N 45°10' E 036°33'0 0.2
2017-Aug-13 18:59N 45°10' E 036°32'1 1.2
2017-Aug-13 18:30N 45°10' E 036°32'4 8.3
2017-Aug-13 18:00N 45°06' E 036°31'24 8.3
2017-Aug-13 15:10N 44°43' E 036°24'3 8.7
2017-Aug-13 14:49N 44°40' E 036°21'7 8.6
2017-Aug-13 13:59N 44°35' E 036°14'4 8.4
2017-Aug-13 13:30N 44°32' E 036°11'161 8.8
2017-Aug-12 19:06N 42°29' E 033°47'1 8.8
2017-Aug-12 19:00N 42°29' E 033°46'5 8.9
2017-Aug-12 18:27N 42°25' E 033°42'4 8.9
2017-Aug-12 18:00N 42°22' E 033°38'5 9.0
2017-Aug-12 17:29N 42°18' E 033°34'6 8.8
2017-Aug-12 16:48N 42°14' E 033°28'5 9.1
2017-Aug-12 16:17N 42°12' E 033°22'3 9.2
2017-Aug-12 16:00N 42°11' E 033°19'5 9.2
2017-Aug-12 15:29N 42°09' E 033°13'7 9.4
2017-Aug-12 14:46N 42°06' E 033°05'2 9.5
2017-Aug-12 14:30N 42°05' E 033°02'5 9.4
2017-Aug-12 14:00N 42°03' E 032°56'5 9.3
2017-Aug-12 13:30N 42°01' E 032°51'5 9.3
2017-Aug-12 13:00N 41°59' E 032°45'5 9.5
2017-Aug-12 12:31N 41°57' E 032°39'8 9.3
2017-Aug-12 11:39N 41°54' E 032°30'59 9.4
2017-Aug-12 05:20N 41°28' E 031°18'6 8.9
2017-Aug-12 04:41N 41°27' E 031°10'2 8.6
2017-Aug-12 04:30N 41°27' E 031°08'4 8.8
2017-Aug-12 04:01N 41°27' E 031°02'5 8.8
2017-Aug-12 03:30N 41°26' E 030°56'8 8.7
2017-Aug-12 02:34N 41°25' E 030°46'1 8.7
2017-Aug-12 02:30N 41°25' E 030°45'4 8.7
2017-Aug-12 02:00N 41°24' E 030°39'4 8.8
2017-Aug-12 01:30N 41°24' E 030°33'5 9.2
2017-Aug-12 01:01N 41°23' E 030°27'5 9.1
2017-Aug-12 00:30N 41°23' E 030°21'5 9.3
2017-Aug-11 23:58N 41°22' E 030°15'4 9.2
2017-Aug-11 23:29N 41°22' E 030°09'4 9.2
2017-Aug-11 23:00N 41°21' E 030°03'5 9.1
2017-Aug-11 22:30N 41°20' E 029°57'5 9.0
2017-Aug-11 21:59N 41°20' E 029°51'10 8.9
2017-Aug-11 20:54N 41°18' E 029°38'4 8.9
2017-Aug-11 20:30N 41°18' E 029°33'6 9.0
2017-Aug-11 19:50N 41°17' E 029°25'3 9.0
2017-Aug-11 19:30N 41°17' E 029°21'5 9.0
2017-Aug-11 19:00N 41°16' E 029°16'4 8.7
2017-Aug-11 18:30N 41°15' E 029°10'4 7.9
2017-Aug-11 18:01N 41°12' E 029°06'3 6.8
2017-Aug-11 17:30N 41°09' E 029°04'8 5.5
2017-Aug-11 16:08N 41°02' E 029°01'  
Track history (hours):
 
Tides and Currents Weather Stations Pressure Air Temp Water Temp Dewpoint Dewpoint Depression Visibility Wind Speed Wind Dir Waves Ship Positions

Unlu-5

Last reported at 2017-Aug-18 09:52 UTC. Time now 2017-Aug-21 04:24 UTC.
Position N 41°17' E 029°02'.

Length 99 m; draft 6 m.

Type: Ship. MMSI: 271000854.

Date/timePositionNaut miles runAvg speedWind from/ knotsBaromVisibWave heightAir tempDewpointWater temp
2017-Aug-18 09:52N 41°17' E 029°02'0 0.2
2017-Aug-18 09:30N 41°17' E 029°02'  
2017-Aug-15 23:16N 44°59' E 036°29'5 7.8
2017-Aug-15 22:38N 45°04' E 036°30'1 7.6
2017-Aug-15 22:30N 45°05' E 036°30'4 6.9
2017-Aug-15 21:59N 45°08' E 036°32'2 3.2
2017-Aug-15 21:24N 45°09' E 036°34'0 0.0
2017-Aug-15 10:58N 45°09' E 036°34'0 0.0
2017-Aug-14 17:17N 45°09' E 036°34'1 4.3
2017-Aug-14 16:59N 45°10' E 036°33'0 0.0
2017-Aug-14 15:14N 45°10' E 036°33'0 0.0
2017-Aug-14 13:17N 45°10' E 036°33'0 0.1
2017-Aug-14 12:56N 45°10' E 036°33'0 0.0
2017-Aug-14 12:26N 45°10' E 036°33'0 0.0
2017-Aug-14 11:59N 45°10' E 036°33'0 0.0
2017-Aug-14 11:26N 45°10' E 036°33'0 0.0
2017-Aug-14 10:59N 45°10' E 036°33'0 0.0
2017-Aug-14 10:29N 45°10' E 036°33'0 0.0
2017-Aug-14 09:41N 45°10' E 036°33'0 0.1
2017-Aug-14 09:17N 45°10' E 036°33'0 0.1
2017-Aug-14 08:59N 45°10' E 036°33'0 0.0
2017-Aug-14 08:11N 45°10' E 036°33'0 0.2
2017-Aug-14 07:59N 45°10' E 036°32'0 0.1
2017-Aug-14 07:29N 45°10' E 036°32'0 0.0
2017-Aug-14 06:59N 45°10' E 036°32'0 0.0
2017-Aug-14 06:05N 45°10' E 036°33'0 0.2
2017-Aug-14 05:59N 45°10' E 036°32'0 0.0
2017-Aug-14 00:56N 45°10' E 036°32'0 0.0
2017-Aug-13 22:59N 45°10' E 036°32'0 0.0
2017-Aug-13 22:29N 45°10' E 036°32'0 0.0
2017-Aug-13 21:59N 45°10' E 036°32'0 0.0
2017-Aug-13 21:29N 45°10' E 036°32'0 0.0
2017-Aug-13 20:59N 45°10' E 036°32'0 0.1
2017-Aug-13 20:29N 45°10' E 036°33'0 0.0
2017-Aug-13 19:53N 45°10' E 036°33'0 0.0
2017-Aug-13 19:17N 45°10' E 036°33'0 0.2
2017-Aug-13 18:59N 45°10' E 036°32'1 1.2
2017-Aug-13 18:30N 45°10' E 036°32'4 8.3
2017-Aug-13 18:00N 45°06' E 036°31'24 8.3
2017-Aug-13 15:10N 44°43' E 036°24'3 8.7
2017-Aug-13 14:49N 44°40' E 036°21'7 8.6
2017-Aug-13 13:59N 44°35' E 036°14'4 8.4
2017-Aug-13 13:30N 44°32' E 036°11'161 8.8
2017-Aug-12 19:06N 42°29' E 033°47'1 8.8
2017-Aug-12 19:00N 42°29' E 033°46'5 8.9
2017-Aug-12 18:27N 42°25' E 033°42'4 8.9
2017-Aug-12 18:00N 42°22' E 033°38'5 9.0
2017-Aug-12 17:29N 42°18' E 033°34'6 8.8
2017-Aug-12 16:48N 42°14' E 033°28'5 9.1
2017-Aug-12 16:17N 42°12' E 033°22'3 9.2
2017-Aug-12 16:00N 42°11' E 033°19'5 9.2
2017-Aug-12 15:29N 42°09' E 033°13'7 9.4
2017-Aug-12 14:46N 42°06' E 033°05'2 9.5
2017-Aug-12 14:30N 42°05' E 033°02'5 9.4
2017-Aug-12 14:00N 42°03' E 032°56'5 9.3
2017-Aug-12 13:30N 42°01' E 032°51'5 9.3
2017-Aug-12 13:00N 41°59' E 032°45'5 9.5
2017-Aug-12 12:31N 41°57' E 032°39'8 9.3
2017-Aug-12 11:39N 41°54' E 032°30'59 9.4
2017-Aug-12 05:20N 41°28' E 031°18'6 8.9
2017-Aug-12 04:41N 41°27' E 031°10'2 8.6
2017-Aug-12 04:30N 41°27' E 031°08'4 8.8
2017-Aug-12 04:01N 41°27' E 031°02'5 8.8
2017-Aug-12 03:30N 41°26' E 030°56'8 8.7
2017-Aug-12 02:34N 41°25' E 030°46'1 8.7
2017-Aug-12 02:30N 41°25' E 030°45'4 8.7
2017-Aug-12 02:00N 41°24' E 030°39'4 8.8
2017-Aug-12 01:30N 41°24' E 030°33'5 9.2
2017-Aug-12 01:01N 41°23' E 030°27'5 9.1
2017-Aug-12 00:30N 41°23' E 030°21'5 9.3
2017-Aug-11 23:58N 41°22' E 030°15'4 9.2
2017-Aug-11 23:29N 41°22' E 030°09'4 9.2
2017-Aug-11 23:00N 41°21' E 030°03'5 9.1
2017-Aug-11 22:30N 41°20' E 029°57'5 9.0
2017-Aug-11 21:59N 41°20' E 029°51'10 8.9
2017-Aug-11 20:54N 41°18' E 029°38'4 8.9
2017-Aug-11 20:30N 41°18' E 029°33'6 9.0
2017-Aug-11 19:50N 41°17' E 029°25'3 9.0
2017-Aug-11 19:30N 41°17' E 029°21'5 9.0
2017-Aug-11 19:00N 41°16' E 029°16'4 8.7
2017-Aug-11 18:30N 41°15' E 029°10'4 7.9
2017-Aug-11 18:01N 41°12' E 029°06'3 6.8
2017-Aug-11 17:30N 41°09' E 029°04'8 5.5
2017-Aug-11 16:08N 41°02' E 029°01'  

Dump ship's entire track history